Terminal Aerodrome Forecast
Issued by NWS Buffalo, NY

Home | Current Version | Previous Version | Text Only | Print | Product List | Glossary On
Versions: 1 2 3 4 5 6 7 8 9 10 11 12 13 14 15 16 17 18 19 20 21 22 23 24
000
FTUS41 KBUF 250500
TAFBUF
TAF
KBUF 250527Z 2506/2606 24030G52KT P6SM SCT007 OVC015
     FM251200 24025G47KT P6SM SCT007 OVC015
     FM251500 25022G40KT P6SM SCT015 BKN025
     FM251800 25020G38KT P6SM SCT025 BKN035
     FM252200 25016G32KT P6SM BKN035
     FM260200 24015G25KT P6SM BKN100=

USA.gov is the U.S. government's official web portal to all federal, state and local government web resources and services.